Winton, Minnesota
Current Conditions -  °F | °C
As of 6:32 AM on Sunday 21 Dec 2014 (Local Time) from KELO Reporting Station
Haze Haze  
Wind Chill: 18°   Ceiling: 500
Heat Index: 28°   Visibility: 5mi
Dew Point: 27°   Wind: 12mph
Humidity: 93%   Direction: 170°S
Pressure: 29.9"   Gusts: NA
Location:  47.93°N, 91.8°W
Report Text: KELO 211232Z AUTO 17010KT 5SM BR OVC005 M02/M03 A2990 RMK AO2
Loading
Personal Weather Stations






























Interactive Weather Map New forecast layout! Learn more

10-Day Weather Forecast

Advertisements
Track Severe Weather on mobile